Time;durP1;ratioP1;P1;durP2;ratioP2;P2;SDS_P1;SDS_P2;PMS_P1;PMS_P2;Temp;Humidity;BMP_temperature;BMP_pressure;BME280_temperature;BME280_humidity;BME280_pressure;Samples;Min_cycle;Max_cycle;Signal;HPM_P1;HPM_P2
2023/12/15 00:00:16;;;;;;;34.58;22.33;;;;;;;;;;5131372;27;20392;-61
2023/12/15 00:02:45;;;;;;;34.88;20.65;;;;;;;;;;5116212;28;20051;-61
2023/12/15 00:05:11;;;;;;;30.73;20.83;;;;;;;;;;5132695;27;20047;-61
2023/12/15 00:07:38;;;;;;;34.70;21.58;;;;;;;;;;5116534;28;20085;-61
2023/12/15 00:10:08;;;;;;;37.35;23.30;;;;;;;;;;5116295;28;20056;-61
2023/12/15 00:12:35;;;;;;;33.40;21.63;;;;;;;;;;5116398;28;20507;-61
2023/12/15 00:15:01;;;;;;;33.58;19.55;;;;;;;;;;5117781;27;20062;-62
2023/12/15 00:17:28;;;;;;;34.58;23.10;;;;;;;;;;5116280;28;20052;-61
2023/12/15 00:19:55;;;;;;;34.90;21.02;;;;;;;;;;5116155;28;20400;-61
2023/12/15 00:22:22;;;;;;;36.45;21.92;;;;;;;;;;5116390;28;20047;-61
2023/12/15 00:24:49;;;;;;;32.92;20.27;;;;;;;;;;5138649;27;20047;-61
2023/12/15 00:27:17;;;;;;;33.50;20.63;;;;;;;;;;5116092;28;20063;-61
2023/12/15 00:29:44;;;;;;;27.10;19.05;;;;;;;;;;5115924;28;20495;-61
2023/12/15 00:32:10;;;;;;;35.20;21.48;;;;;;;;;;5117114;27;20052;-61
2023/12/15 00:34:37;;;;;;;35.05;19.92;;;;;;;;;;5136460;27;20051;-61
2023/12/15 00:37:04;;;;;;;33.05;20.65;;;;;;;;;;5137007;27;20054;-62
2023/12/15 00:39:31;;;;;;;31.27;19.52;;;;;;;;;;5135500;27;20047;-61
2023/12/15 00:41:58;;;;;;;31.92;20.25;;;;;;;;;;5135482;27;20054;-61
2023/12/15 00:44:26;;;;;;;33.17;20.35;;;;;;;;;;5136336;27;20058;-61
2023/12/15 00:46:53;;;;;;;32.60;19.80;;;;;;;;;;5122699;27;20174;-61
2023/12/15 00:49:20;;;;;;;32.92;20.38;;;;;;;;;;5115799;28;20051;-61
2023/12/15 00:51:46;;;;;;;31.02;19.52;;;;;;;;;;5115755;28;20047;-61
2023/12/15 00:54:13;;;;;;;30.85;19.30;;;;;;;;;;5115919;28;20056;-61
2023/12/15 00:56:40;;;;;;;30.02;19.40;;;;;;;;;;5119369;27;20047;-61
2023/12/15 00:59:07;;;;;;;28.00;18.90;;;;;;;;;;5135836;27;20047;-62
2023/12/15 01:01:35;;;;;;;30.55;18.88;;;;;;;;;;5127225;27;20055;-61
2023/12/15 01:04:02;;;;;;;30.42;19.95;;;;;;;;;;5115197;28;20063;-61
2023/12/15 01:06:30;;;;;;;25.58;16.90;;;;;;;;;;5114511;28;20059;-61
2023/12/15 01:08:57;;;;;;;28.40;18.10;;;;;;;;;;5115164;28;20044;-60
2023/12/15 01:11:24;;;;;;;32.08;18.40;;;;;;;;;;5126206;27;20058;-60
2023/12/15 01:13:51;;;;;;;27.98;17.52;;;;;;;;;;5135901;27;20054;-60
2023/12/15 01:16:18;;;;;;;28.17;18.52;;;;;;;;;;5128035;27;20074;-60
2023/12/15 01:18:46;;;;;;;27.33;17.67;;;;;;;;;;5114721;28;20044;-60
2023/12/15 01:21:13;;;;;;;25.67;16.90;;;;;;;;;;5115125;28;20477;-60
2023/12/15 01:23:39;;;;;;;29.30;19.02;;;;;;;;;;5115155;28;20527;-60
2023/12/15 01:26:07;;;;;;;28.75;18.27;;;;;;;;;;5115003;28;20491;-60
2023/12/15 01:28:34;;;;;;;30.40;18.55;;;;;;;;;;5114693;28;20062;-60
2023/12/15 01:31:01;;;;;;;27.30;17.60;;;;;;;;;;5116449;27;20047;-61
2023/12/15 01:33:28;;;;;;;25.63;17.52;;;;;;;;;;5114820;28;20052;-60
2023/12/15 01:35:56;;;;;;;25.48;16.65;;;;;;;;;;5114910;28;20503;-60
2023/12/15 01:38:23;;;;;;;25.30;16.77;;;;;;;;;;5115042;27;20384;-60
2023/12/15 01:40:50;;;;;;;29.73;17.77;;;;;;;;;;5120567;27;20051;-60
2023/12/15 01:43:17;;;;;;;28.33;17.58;;;;;;;;;;5135447;27;20051;-60
2023/12/15 01:45:43;;;;;;;29.50;17.10;;;;;;;;;;5133431;27;20077;-60
2023/12/15 01:48:11;;;;;;;27.73;17.48;;;;;;;;;;5114652;28;20051;-60
2023/12/15 01:50:37;;;;;;;29.83;17.45;;;;;;;;;;5114723;28;20053;-60
2023/12/15 01:53:06;;;;;;;29.23;17.10;;;;;;;;;;5114993;27;20063;-60
2023/12/15 01:55:32;;;;;;;23.85;15.77;;;;;;;;;;5114258;28;20054;-60
2023/12/15 01:57:59;;;;;;;25.63;16.92;;;;;;;;;;5129908;27;20055;-60
2023/12/15 02:00:26;;;;;;;26.13;16.30;;;;;;;;;;5134448;27;20169;-60
2023/12/15 02:02:53;;;;;;;29.45;17.58;;;;;;;;;;5123591;27;20047;-60
2023/12/15 02:05:20;;;;;;;25.70;16.48;;;;;;;;;;5138018;27;20483;-60
2023/12/15 02:07:46;;;;;;;27.58;17.35;;;;;;;;;;5154657;27;20043;-61
2023/12/15 02:10:14;;;;;;;24.42;15.82;;;;;;;;;;5155163;27;20054;-60
2023/12/15 02:12:41;;;;;;;23.52;16.50;;;;;;;;;;5155217;27;20057;-60
2023/12/15 02:15:10;;;;;;;25.77;16.90;;;;;;;;;;5154781;27;20055;-60
2023/12/15 02:17:37;;;;;;;28.02;17.50;;;;;;;;;;5142717;27;20065;-60
2023/12/15 02:20:04;;;;;;;25.10;16.77;;;;;;;;;;5134407;27;20047;-61
2023/12/15 02:22:32;;;;;;;27.52;17.20;;;;;;;;;;5134014;27;20506;-61
2023/12/15 02:24:59;;;;;;;26.58;17.08;;;;;;;;;;5134030;27;20074;-62
2023/12/15 02:27:25;;;;;;;25.15;16.70;;;;;;;;;;5154266;27;20058;-59
2023/12/15 02:29:52;;;;;;;26.77;17.33;;;;;;;;;;5154759;27;20049;-60
2023/12/15 02:32:19;;;;;;;25.27;17.25;;;;;;;;;;5137419;27;20051;-59
2023/12/15 02:34:46;;;;;;;25.15;16.73;;;;;;;;;;5134064;27;20055;-59
2023/12/15 02:37:12;;;;;;;26.73;17.27;;;;;;;;;;5152482;27;20050;-60
2023/12/15 02:39:41;;;;;;;27.17;16.33;;;;;;;;;;5154517;27;20051;-60
2023/12/15 02:42:07;;;;;;;28.40;18.38;;;;;;;;;;5154728;27;20047;-60
2023/12/15 02:44:34;;;;;;;25.40;17.10;;;;;;;;;;5154295;27;20536;-60
2023/12/15 02:47:01;;;;;;;33.10;17.70;;;;;;;;;;5153902;27;20094;-61
2023/12/15 02:49:28;;;;;;;25.83;17.50;;;;;;;;;;5154199;27;20047;-60
2023/12/15 02:51:54;;;;;;;34.13;19.33;;;;;;;;;;5154642;27;20054;-60
2023/12/15 02:54:21;;;;;;;29.98;18.85;;;;;;;;;;5153871;27;20065;-60
2023/12/15 02:56:49;;;;;;;28.50;17.45;;;;;;;;;;5153715;27;20046;-61
2023/12/15 02:59:16;;;;;;;28.50;18.83;;;;;;;;;;5153907;27;20108;-60
2023/12/15 03:01:43;;;;;;;28.42;18.38;;;;;;;;;;5147544;27;20043;-60
2023/12/15 03:04:10;;;;;;;28.27;19.98;;;;;;;;;;5154094;27;20054;-60
2023/12/15 03:06:36;;;;;;;30.60;20.67;;;;;;;;;;5140894;27;20050;-60
2023/12/15 03:09:03;;;;;;;31.88;20.92;;;;;;;;;;5133086;27;20054;-60
2023/12/15 03:11:30;;;;;;;34.90;22.15;;;;;;;;;;5142763;27;20054;-60
2023/12/15 03:13:58;;;;;;;29.48;20.48;;;;;;;;;;5153808;27;20057;-60
2023/12/15 03:16:25;;;;;;;31.60;21.02;;;;;;;;;;5144242;27;20058;-60
2023/12/15 03:18:52;;;;;;;28.40;20.02;;;;;;;;;;5133603;28;20058;-59
2023/12/15 03:21:19;;;;;;;31.23;20.10;;;;;;;;;;5133841;28;20378;-59
2023/12/15 03:23:46;;;;;;;30.55;20.35;;;;;;;;;;5133690;28;20055;-59
2023/12/15 03:26:12;;;;;;;33.35;21.58;;;;;;;;;;5141501;27;20426;-59
2023/12/15 03:28:39;;;;;;;34.75;22.17;;;;;;;;;;5153934;27;20058;-60
2023/12/15 03:31:08;;;;;;;35.67;22.23;;;;;;;;;;5148590;27;20058;-60
2023/12/15 03:33:36;;;;;;;32.50;22.38;;;;;;;;;;5133475;28;20055;-60
2023/12/15 03:36:02;;;;;;;33.72;21.98;;;;;;;;;;5140552;27;20042;-60
2023/12/15 03:38:29;;;;;;;34.80;24.60;;;;;;;;;;5153994;27;20050;-60
2023/12/15 03:40:56;;;;;;;37.25;23.73;;;;;;;;;;5154053;27;20055;-59
2023/12/15 03:43:23;;;;;;;34.90;23.08;;;;;;;;;;5153757;27;20059;-60
2023/12/15 03:45:50;;;;;;;35.53;22.67;;;;;;;;;;5149801;27;20047;-60
2023/12/15 03:48:18;;;;;;;37.90;24.40;;;;;;;;;;5133195;28;20066;-60
2023/12/15 03:50:45;;;;;;;30.90;22.52;;;;;;;;;;5133225;28;20050;-59
2023/12/15 03:53:11;;;;;;;30.75;21.02;;;;;;;;;;5133301;28;20429;-59
2023/12/15 03:55:38;;;;;;;32.90;22.45;;;;;;;;;;5136124;27;20047;-60
2023/12/15 03:58:05;;;;;;;27.70;20.13;;;;;;;;;;5153780;27;20058;-60
2023/12/15 04:00:32;;;;;;;33.40;22.92;;;;;;;;;;5153511;27;20391;-60
2023/12/15 04:02:58;;;;;;;28.38;21.13;;;;;;;;;;5152827;27;20051;-60
2023/12/15 04:05:27;;;;;;;30.35;22.33;;;;;;;;;;5153035;27;20062;-60
2023/12/15 04:07:53;;;;;;;33.47;22.55;;;;;;;;;;5153219;27;20070;-60
2023/12/15 04:10:20;;;;;;;32.58;21.08;;;;;;;;;;5153870;27;20069;-61
2023/12/15 04:12:47;;;;;;;32.63;22.20;;;;;;;;;;5153527;27;20046;-61
2023/12/15 04:15:18;;;;;;;28.38;21.15;;;;;;;;;;5139020;27;20051;-60
2023/12/15 04:17:44;;;;;;;30.38;21.23;;;;;;;;;;5138154;27;20500;-60
2023/12/15 04:20:12;;;;;;;32.65;22.88;;;;;;;;;;5135987;27;20054;-60
2023/12/15 04:22:40;;;;;;;33.90;23.10;;;;;;;;;;5136299;27;20051;-60
2023/12/15 04:25:07;;;;;;;32.38;22.17;;;;;;;;;;5136516;27;20066;-60
2023/12/15 04:27:34;;;;;;;34.17;23.90;;;;;;;;;;5154774;27;20419;-60
2023/12/15 04:30:00;;;;;;;35.67;22.58;;;;;;;;;;5157155;27;20472;-60
2023/12/15 04:32:27;;;;;;;31.92;22.95;;;;;;;;;;5140992;27;20077;-60
2023/12/15 04:34:54;;;;;;;36.28;25.05;;;;;;;;;;5136021;27;20055;-60
2023/12/15 04:37:21;;;;;;;30.55;21.50;;;;;;;;;;5152781;27;20047;-60
2023/12/15 04:39:49;;;;;;;36.28;24.52;;;;;;;;;;5156746;27;20061;-61
2023/12/15 04:42:15;;;;;;;28.42;21.05;;;;;;;;;;5156843;27;20046;-60
2023/12/15 04:44:42;;;;;;;33.88;22.17;;;;;;;;;;5154886;27;20062;-60
2023/12/15 04:47:09;;;;;;;33.22;23.75;;;;;;;;;;5142406;27;20539;-61
2023/12/15 04:49:36;;;;;;;32.78;23.67;;;;;;;;;;5135972;27;20480;-60
2023/12/15 04:52:03;;;;;;;50.65;30.08;;;;;;;;;;5135787;27;20047;-61
2023/12/15 04:54:29;;;;;;;46.53;28.15;;;;;;;;;;5140976;27;20054;-61
2023/12/15 04:56:57;;;;;;;57.97;30.10;;;;;;;;;;5156553;27;20376;-60
2023/12/15 04:59:25;;;;;;;45.67;28.65;;;;;;;;;;5156708;27;20062;-61
2023/12/15 05:01:52;;;;;;;57.45;32.03;;;;;;;;;;5146762;27;20050;-60
2023/12/15 05:04:18;;;;;;;59.45;31.73;;;;;;;;;;5135540;27;20129;-60
2023/12/15 05:06:45;;;;;;;69.95;34.85;;;;;;;;;;5135457;27;20051;-61
2023/12/15 05:09:12;;;;;;;40.10;27.17;;;;;;;;;;5138037;27;20415;-60
2023/12/15 05:11:39;;;;;;;45.58;27.13;;;;;;;;;;5156513;27;20053;-60
2023/12/15 05:14:07;;;;;;;35.83;24.15;;;;;;;;;;5156200;27;20513;-60
2023/12/15 05:16:34;;;;;;;44.30;28.77;;;;;;;;;;5149356;27;20043;-60
2023/12/15 05:19:00;;;;;;;45.47;28.25;;;;;;;;;;5156400;27;20062;-60
2023/12/15 05:21:27;;;;;;;43.20;28.15;;;;;;;;;;5151707;27;20420;-60
2023/12/15 05:23:58;;;;;;;36.95;25.15;;;;;;;;;;5141259;27;20407;-61
2023/12/15 05:26:25;;;;;;;43.00;26.10;;;;;;;;;;5155402;27;20073;-60
2023/12/15 05:28:52;;;;;;;43.80;27.88;;;;;;;;;;5144166;27;20051;-60
2023/12/15 05:31:20;;;;;;;39.58;26.90;;;;;;;;;;5131671;27;20039;-60
2023/12/15 05:33:47;;;;;;;38.17;25.30;;;;;;;;;;5145857;27;20054;-60
2023/12/15 05:36:20;;;;;;;35.47;23.48;;;;;;;;;;5136410;27;20051;-60
2023/12/15 05:38:47;;;;;;;32.67;23.20;;;;;;;;;;5142077;27;20046;-60
2023/12/15 05:41:14;;;;;;;32.80;22.15;;;;;;;;;;5139787;27;20066;-60
2023/12/15 05:43:40;;;;;;;31.60;21.15;;;;;;;;;;5148995;27;20058;-60
2023/12/15 05:46:07;;;;;;;33.72;23.02;;;;;;;;;;5147005;27;20047;-60
2023/12/15 05:48:36;;;;;;;28.08;20.00;;;;;;;;;;5143035;27;20069;-60
2023/12/15 05:51:02;;;;;;;30.80;21.23;;;;;;;;;;5155395;27;20046;-60
2023/12/15 05:53:29;;;;;;;26.63;18.88;;;;;;;;;;5155438;27;20073;-61
2023/12/15 05:55:56;;;;;;;26.23;18.38;;;;;;;;;;5155378;27;20077;-60
2023/12/15 05:58:23;;;;;;;25.75;18.42;;;;;;;;;;5151818;27;20058;-60
2023/12/15 06:00:50;;;;;;;23.40;16.58;;;;;;;;;;5140392;27;20046;-61
2023/12/15 06:03:17;;;;;;;23.25;16.65;;;;;;;;;;5154475;27;20065;-61
2023/12/15 06:05:45;;;;;;;23.63;17.10;;;;;;;;;;5149032;27;20536;-60
2023/12/15 06:08:13;;;;;;;24.88;17.33;;;;;;;;;;5142259;27;20046;-60
2023/12/15 06:10:40;;;;;;;25.55;18.05;;;;;;;;;;5134665;27;20051;-60
2023/12/15 06:13:07;;;;;;;27.10;18.73;;;;;;;;;;5148558;27;20065;-61
2023/12/15 06:15:34;;;;;;;24.65;17.70;;;;;;;;;;5149965;27;20051;-60
2023/12/15 06:18:01;;;;;;;25.05;17.52;;;;;;;;;;5149555;27;20057;-61
2023/12/15 06:20:28;;;;;;;25.13;18.15;;;;;;;;;;5148277;27;20065;-60
2023/12/15 06:22:56;;;;;;;26.65;17.45;;;;;;;;;;5153091;27;20375;-60
2023/12/15 06:25:23;;;;;;;19.63;15.60;;;;;;;;;;5154773;27;20060;-60
2023/12/15 06:27:50;;;;;;;25.02;18.65;;;;;;;;;;5154976;27;20051;-60
2023/12/15 06:30:17;;;;;;;21.40;16.67;;;;;;;;;;5145438;27;20047;-60
2023/12/15 06:32:44;;;;;;;23.98;16.55;;;;;;;;;;5153419;27;20047;-60
2023/12/15 06:35:11;;;;;;;25.25;18.08;;;;;;;;;;5154561;27;20050;-60
2023/12/15 06:37:38;;;;;;;27.15;18.58;;;;;;;;;;5151547;27;20510;-60
2023/12/15 06:40:07;;;;;;;24.75;17.55;;;;;;;;;;5133941;27;20074;-61
2023/12/15 06:42:34;;;;;;;22.42;17.42;;;;;;;;;;5147393;27;20043;-61
2023/12/15 06:45:07;;;;;;;27.08;18.92;;;;;;;;;;5151976;27;20043;-61
2023/12/15 06:47:34;;;;;;;26.27;19.63;;;;;;;;;;5154736;27;20057;-60
2023/12/15 06:50:01;;;;;;;24.52;19.35;;;;;;;;;;5154623;27;20398;-60
2023/12/15 06:52:28;;;;;;;38.40;25.70;;;;;;;;;;5154350;27;20053;-60
2023/12/15 06:54:55;;;;;;;37.22;24.95;;;;;;;;;;5153945;27;20074;-60
2023/12/15 06:57:23;;;;;;;29.05;20.58;;;;;;;;;;5153677;27;20042;-60
2023/12/15 06:59:50;;;;;;;27.33;19.38;;;;;;;;;;5147109;27;20462;-60
2023/12/15 07:02:17;;;;;;;32.50;21.52;;;;;;;;;;5140562;27;20125;-60
2023/12/15 07:04:43;;;;;;;30.92;19.30;;;;;;;;;;5133607;27;20055;-60
2023/12/15 07:07:10;;;;;;;29.67;20.65;;;;;;;;;;5133282;27;20058;-60
2023/12/15 07:09:37;;;;;;;31.83;21.45;;;;;;;;;;5133482;27;20058;-61
2023/12/15 07:12:04;;;;;;;32.00;22.10;;;;;;;;;;5133114;27;20043;-60
2023/12/15 07:14:32;;;;;;;33.92;22.63;;;;;;;;;;5134062;27;20062;-61
2023/12/15 07:16:59;;;;;;;32.22;20.75;;;;;;;;;;5153929;27;20054;-61
2023/12/15 07:19:26;;;;;;;33.47;22.30;;;;;;;;;;5154182;27;20055;-61
2023/12/15 07:21:53;;;;;;;32.70;22.33;;;;;;;;;;5153789;27;20046;-61
2023/12/15 07:24:20;;;;;;;31.40;22.25;;;;;;;;;;5153896;27;20057;-60
2023/12/15 07:26:47;;;;;;;36.40;23.10;;;;;;;;;;5153387;27;20426;-60
2023/12/15 07:29:14;;;;;;;30.50;21.35;;;;;;;;;;5140656;27;20088;-61
2023/12/15 07:31:42;;;;;;;30.48;20.13;;;;;;;;;;5147072;27;20051;-60
2023/12/15 07:34:09;;;;;;;34.65;21.67;;;;;;;;;;5153456;27;20058;-60
2023/12/15 07:36:36;;;;;;;31.13;21.75;;;;;;;;;;5153738;27;20384;-61
2023/12/15 07:39:03;;;;;;;35.22;23.50;;;;;;;;;;5153302;27;20054;-60
2023/12/15 07:41:29;;;;;;;33.25;23.30;;;;;;;;;;5153504;27;20415;-60
2023/12/15 07:43:56;;;;;;;36.90;23.80;;;;;;;;;;5135636;27;20047;-61
2023/12/15 07:46:23;;;;;;;32.50;23.13;;;;;;;;;;5133413;28;20062;-60
2023/12/15 07:48:51;;;;;;;32.17;22.52;;;;;;;;;;5136342;27;20077;-60
2023/12/15 07:51:19;;;;;;;29.60;20.27;;;;;;;;;;5137261;27;20063;-60
2023/12/15 07:53:47;;;;;;;36.15;23.65;;;;;;;;;;5137361;27;20090;-60
2023/12/15 07:56:21;;;;;;;30.98;21.40;;;;;;;;;;5137445;27;20051;-61
2023/12/15 07:58:49;;;;;;;32.10;21.58;;;;;;;;;;5154008;27;20129;-60
2023/12/15 08:01:16;;;;;;;30.38;21.33;;;;;;;;;;5157961;27;20050;-60
2023/12/15 08:03:43;;;;;;;31.73;21.73;;;;;;;;;;5157654;27;20070;-61
2023/12/15 08:06:11;;;;;;;34.95;21.15;;;;;;;;;;5157738;27;20415;-61
2023/12/15 08:08:38;;;;;;;32.42;22.25;;;;;;;;;;5157440;27;20054;-61
2023/12/15 08:11:05;;;;;;;34.67;23.67;;;;;;;;;;5156779;27;20055;-62
2023/12/15 08:13:32;;;;;;;32.70;22.25;;;;;;;;;;5156469;27;20057;-62
2023/12/15 08:15:59;;;;;;;34.53;23.70;;;;;;;;;;5157087;27;20046;-61
2023/12/15 08:18:26;;;;;;;30.98;22.00;;;;;;;;;;5157411;27;20054;-60
2023/12/15 08:20:53;;;;;;;31.80;22.35;;;;;;;;;;5157435;27;20054;-60
2023/12/15 08:23:21;;;;;;;33.15;22.35;;;;;;;;;;5153251;27;20039;-60
2023/12/15 08:25:48;;;;;;;36.33;23.15;;;;;;;;;;5146343;27;20050;-60
2023/12/15 08:28:15;;;;;;;37.47;24.08;;;;;;;;;;5141123;27;20414;-59
2023/12/15 08:30:42;;;;;;;34.08;22.55;;;;;;;;;;5140241;27;20054;-60
2023/12/15 08:33:09;;;;;;;31.85;20.73;;;;;;;;;;5143272;27;20113;-61
2023/12/15 08:35:35;;;;;;;36.25;23.45;;;;;;;;;;5140798;27;20399;-60
2023/12/15 08:38:02;;;;;;;38.25;23.33;;;;;;;;;;5136838;27;20062;-60
2023/12/15 08:40:30;;;;;;;36.47;23.60;;;;;;;;;;5145154;27;20070;-60
2023/12/15 08:42:57;;;;;;;33.13;21.05;;;;;;;;;;5138337;27;20050;-60
2023/12/15 08:45:24;;;;;;;37.92;23.10;;;;;;;;;;5142625;27;20062;-60
2023/12/15 08:47:51;;;;;;;37.15;23.83;;;;;;;;;;5136174;27;20078;-60
2023/12/15 08:50:18;;;;;;;36.33;24.23;;;;;;;;;;5141055;27;20150;-60
2023/12/15 08:52:44;;;;;;;34.13;23.30;;;;;;;;;;5152400;27;20047;-61
2023/12/15 08:55:11;;;;;;;34.10;22.67;;;;;;;;;;5145402;27;20061;-60
2023/12/15 08:57:40;;;;;;;34.28;23.13;;;;;;;;;;5136720;27;20058;-59
2023/12/15 09:00:07;;;;;;;36.60;21.80;;;;;;;;;;5140433;27;20043;-61
2023/12/15 09:02:34;;;;;;;35.88;23.45;;;;;;;;;;5147267;27;20047;-60
2023/12/15 09:05:01;;;;;;;38.83;23.35;;;;;;;;;;5143027;27;20055;-61
2023/12/15 09:07:28;;;;;;;37.33;23.30;;;;;;;;;;5151897;27;20073;-60
2023/12/15 09:09:55;;;;;;;35.92;23.23;;;;;;;;;;5153508;27;20046;-61
2023/12/15 09:12:22;;;;;;;36.10;23.17;;;;;;;;;;5148466;27;20510;-60
2023/12/15 09:14:50;;;;;;;41.45;24.17;;;;;;;;;;5134872;27;20499;-60
2023/12/15 09:17:17;;;;;;;33.38;21.42;;;;;;;;;;5143989;27;20414;-60
2023/12/15 09:19:44;;;;;;;38.03;22.85;;;;;;;;;;5138118;27;20059;-59
2023/12/15 09:22:11;;;;;;;41.95;25.13;;;;;;;;;;5143387;27;20047;-60
2023/12/15 09:24:38;;;;;;;35.80;22.95;;;;;;;;;;5143584;27;20047;-61
2023/12/15 09:27:05;;;;;;;38.20;24.35;;;;;;;;;;5148807;27;20249;-60
2023/12/15 09:29:34;;;;;;;38.35;24.00;;;;;;;;;;5140786;27;20047;-60
2023/12/15 09:32:02;;;;;;;34.42;23.80;;;;;;;;;;5146119;27;20067;-61
2023/12/15 09:34:29;;;;;;;33.47;21.65;;;;;;;;;;5141531;27;20050;-60
2023/12/15 09:36:56;;;;;;;40.78;23.58;;;;;;;;;;5142203;27;20047;-60
2023/12/15 09:39:23;;;;;;;36.70;23.00;;;;;;;;;;5133280;27;20059;-60
2023/12/15 09:41:50;;;;;;;41.55;24.85;;;;;;;;;;5134979;27;20043;-60
2023/12/15 09:44:18;;;;;;;35.67;22.48;;;;;;;;;;5143983;27;20042;-60
2023/12/15 09:46:45;;;;;;;32.88;21.90;;;;;;;;;;5148247;27;20057;-60
2023/12/15 09:49:15;;;;;;;38.72;23.48;;;;;;;;;;5144020;27;20055;-60
2023/12/15 09:51:45;;;;;;;37.53;21.20;;;;;;;;;;5140089;27;20491;-60
2023/12/15 09:54:12;;;;;;;32.97;21.70;;;;;;;;;;5145043;27;20416;-60
2023/12/15 09:56:39;;;;;;;32.17;21.33;;;;;;;;;;5140121;27;20051;-60
2023/12/15 09:59:06;;;;;;;31.73;20.98;;;;;;;;;;5144453;27;20042;-61
2023/12/15 10:01:33;;;;;;;32.80;21.60;;;;;;;;;;5142931;27;20055;-60
2023/12/15 10:04:00;;;;;;;36.30;21.73;;;;;;;;;;5152120;27;20058;-61
2023/12/15 10:06:28;;;;;;;34.03;21.88;;;;;;;;;;5152307;27;20406;-60
2023/12/15 10:08:55;;;;;;;30.27;19.50;;;;;;;;;;5146926;27;20073;-60
2023/12/15 10:11:22;;;;;;;35.85;21.77;;;;;;;;;;5151429;27;20046;-59
2023/12/15 10:13:49;;;;;;;28.15;18.70;;;;;;;;;;5151747;27;20046;-59
2023/12/15 10:16:15;;;;;;;31.33;21.55;;;;;;;;;;5152443;27;20051;-59
2023/12/15 10:18:43;;;;;;;31.35;20.20;;;;;;;;;;5152461;27;20050;-59
2023/12/15 10:21:09;;;;;;;28.35;19.50;;;;;;;;;;5148144;27;20054;-59
2023/12/15 10:23:38;;;;;;;28.90;19.83;;;;;;;;;;5133826;27;20047;-60
2023/12/15 10:26:06;;;;;;;37.50;21.58;;;;;;;;;;5134237;27;20500;-59
2023/12/15 10:28:38;;;;;;;30.88;20.13;;;;;;;;;;5142317;27;20047;-59
2023/12/15 10:31:05;;;;;;;32.30;21.30;;;;;;;;;;5138342;27;20051;-60
2023/12/15 10:33:33;;;;;;;32.47;20.60;;;;;;;;;;5143910;27;20447;-60
2023/12/15 10:36:01;;;;;;;28.60;19.23;;;;;;;;;;5151748;27;20046;-60
2023/12/15 10:38:28;;;;;;;30.90;20.38;;;;;;;;;;5145504;27;20054;-60
2023/12/15 10:40:57;;;;;;;31.02;19.92;;;;;;;;;;5135470;27;20050;-60
2023/12/15 10:43:24;;;;;;;30.73;19.73;;;;;;;;;;5142153;27;20042;-61
2023/12/15 10:45:51;;;;;;;30.13;19.55;;;;;;;;;;5149014;27;20047;-60
2023/12/15 10:48:18;;;;;;;28.85;19.60;;;;;;;;;;5141947;27;20058;-62
2023/12/15 10:50:46;;;;;;;27.90;18.38;;;;;;;;;;5148623;27;20066;-60
2023/12/15 10:53:13;;;;;;;29.75;18.80;;;;;;;;;;5136733;27;20043;-61
2023/12/15 10:55:42;;;;;;;28.70;18.60;;;;;;;;;;5151438;27;20054;-61
2023/12/15 10:58:11;;;;;;;32.40;20.50;;;;;;;;;;5133664;27;20419;-60
2023/12/15 11:00:38;;;;;;;32.22;21.15;;;;;;;;;;5148704;27;20408;-61
2023/12/15 11:03:06;;;;;;;31.05;19.92;;;;;;;;;;5139119;27;20059;-61
2023/12/15 11:05:34;;;;;;;30.55;20.42;;;;;;;;;;5134498;27;20059;-60
2023/12/15 11:08:01;;;;;;;31.13;20.42;;;;;;;;;;5133129;27;20047;-60
2023/12/15 11:10:28;;;;;;;34.78;21.35;;;;;;;;;;5152297;27;20051;-60
2023/12/15 11:12:55;;;;;;;32.42;21.33;;;;;;;;;;5144719;27;20043;-60
2023/12/15 11:15:23;;;;;;;34.15;22.02;;;;;;;;;;5135874;27;20058;-60
2023/12/15 11:17:53;;;;;;;36.00;22.23;;;;;;;;;;5146748;27;20058;-60
2023/12/15 11:20:40;;;;;;;31.35;19.75;;;;;;;;;;5138462;27;20051;-60
2023/12/15 11:23:08;;;;;;;33.05;20.55;;;;;;;;;;5142054;27;20050;-60
2023/12/15 11:25:36;;;;;;;33.80;22.00;;;;;;;;;;5146850;27;20058;-61
2023/12/15 11:28:07;;;;;;;34.00;21.63;;;;;;;;;;5152634;27;20050;-59
2023/12/15 11:30:37;;;;;;;34.85;22.33;;;;;;;;;;5153453;27;20498;-60
2023/12/15 11:33:04;;;;;;;;;;;;;;;;;;5154342;27;20051;-60
2023/12/15 11:35:32;;;;;;;33.05;21.05;;;;;;;;;;5146239;27;19950;-60
2023/12/15 11:37:59;;;;;;;32.13;20.75;;;;;;;;;;5142472;27;20057;-66
2023/12/15 11:40:29;;;;;;;38.35;23.42;;;;;;;;;;5144257;27;20051;-60
2023/12/15 11:42:56;;;;;;;;;;;;;;;;;;5146227;27;20047;-59
2023/12/15 11:45:24;;;;;;;37.50;21.33;;;;;;;;;;5152346;27;19923;-60
2023/12/15 11:47:52;;;;;;;34.90;22.15;;;;;;;;;;5153331;27;20055;-60
2023/12/15 11:50:20;;;;;;;33.58;21.27;;;;;;;;;;5136247;27;20054;-62
2023/12/15 11:52:47;;;;;;;35.67;23.33;;;;;;;;;;5128114;27;20522;-60
2023/12/15 11:55:13;;;;;;;31.88;21.08;;;;;;;;;;5127714;27;20526;-60
2023/12/15 11:57:40;;;;;;;31.15;20.52;;;;;;;;;;5132092;27;22065;-60
2023/12/15 12:00:09;;;;;;;34.97;21.33;;;;;;;;;;5130174;27;20070;-59
2023/12/15 12:02:36;;;;;;;32.92;20.55;;;;;;;;;;5127581;27;20065;-61
2023/12/15 12:05:07;;;;;;;33.97;20.88;;;;;;;;;;5128058;27;20054;-60
2023/12/15 12:07:34;;;;;;;35.22;21.20;;;;;;;;;;5127346;27;20082;-60
2023/12/15 12:10:03;;;;;;;33.92;21.85;;;;;;;;;;5131839;27;20047;-60
2023/12/15 12:12:29;;;;;;;37.63;22.73;;;;;;;;;;5135595;27;20047;-59
2023/12/15 12:15:02;;;;;;;35.50;21.92;;;;;;;;;;5137484;27;20414;-59
2023/12/15 12:17:29;;;;;;;35.53;21.35;;;;;;;;;;5137888;27;20059;-60
2023/12/15 12:19:55;;;;;;;31.98;21.42;;;;;;;;;;5134154;27;20479;-60
2023/12/15 12:22:23;;;;;;;31.80;20.95;;;;;;;;;;5145622;27;20047;-61
2023/12/15 12:24:52;;;;;;;39.58;22.83;;;;;;;;;;5136686;27;20476;-59
2023/12/15 12:27:18;;;;;;;31.35;19.77;;;;;;;;;;5140563;27;20042;-60
2023/12/15 12:29:46;;;;;;;33.67;23.02;;;;;;;;;;5153301;27;20057;-60
2023/12/15 12:32:13;;;;;;;32.38;21.25;;;;;;;;;;5139604;27;20046;-60
2023/12/15 12:34:40;;;;;;;33.40;21.38;;;;;;;;;;5138173;27;20038;-60
2023/12/15 12:37:07;;;;;;;36.65;22.55;;;;;;;;;;5156245;27;20046;-61
2023/12/15 12:39:35;;;;;;;32.65;21.30;;;;;;;;;;5135834;27;20047;-60
2023/12/15 12:42:02;;;;;;;32.85;20.13;;;;;;;;;;5141188;27;20054;-59
2023/12/15 12:44:29;;;;;;;33.05;20.27;;;;;;;;;;5141901;27;20051;-60
2023/12/15 12:46:56;;;;;;;33.97;21.52;;;;;;;;;;5137339;27;20400;-60
2023/12/15 12:49:22;;;;;;;38.80;22.88;;;;;;;;;;5152156;27;20053;-60
2023/12/15 12:51:49;;;;;;;35.03;23.30;;;;;;;;;;5135878;27;20047;-60
2023/12/15 12:54:16;;;;;;;31.45;21.38;;;;;;;;;;5142700;27;20043;-58
2023/12/15 12:56:44;;;;;;;35.25;21.50;;;;;;;;;;5150580;27;20058;-59
2023/12/15 12:59:11;;;;;;;34.17;21.60;;;;;;;;;;5140476;27;20051;-58
2023/12/15 13:01:39;;;;;;;29.52;20.20;;;;;;;;;;5136084;27;20062;-58
2023/12/15 13:04:06;;;;;;;36.97;21.92;;;;;;;;;;5139186;27;20518;-59
2023/12/15 13:06:34;;;;;;;35.90;22.42;;;;;;;;;;5135664;27;20381;-59
2023/12/15 13:09:00;;;;;;;32.58;21.02;;;;;;;;;;5147300;27;20055;-58
2023/12/15 13:11:27;;;;;;;33.65;21.63;;;;;;;;;;5147982;27;20514;-59
2023/12/15 13:13:55;;;;;;;36.17;21.05;;;;;;;;;;5143875;27;20054;-58
2023/12/15 13:16:22;;;;;;;33.40;20.83;;;;;;;;;;5145563;27;20051;-59
2023/12/15 13:18:49;;;;;;;33.50;20.40;;;;;;;;;;5141866;27;20506;-59
2023/12/15 13:21:16;;;;;;;31.33;20.45;;;;;;;;;;5144058;27;20491;-59
2023/12/15 13:23:43;;;;;;;30.15;20.85;;;;;;;;;;5153061;27;20395;-59
2023/12/15 13:26:10;;;;;;;35.05;20.42;;;;;;;;;;5151603;27;20057;-58
2023/12/15 13:28:38;;;;;;;35.55;21.15;;;;;;;;;;5147131;27;20051;-59
2023/12/15 13:31:07;;;;;;;33.90;20.07;;;;;;;;;;5149037;27;20407;-59
2023/12/15 13:33:33;;;;;;;29.10;18.48;;;;;;;;;;5140251;27;20051;-60
2023/12/15 13:36:00;;;;;;;31.00;20.25;;;;;;;;;;5135105;27;20365;-59
2023/12/15 13:38:28;;;;;;;31.50;20.17;;;;;;;;;;5138647;27;20051;-59
2023/12/15 13:40:56;;;;;;;28.27;19.45;;;;;;;;;;5152704;27;20050;-59
2023/12/15 13:43:24;;;;;;;28.08;18.27;;;;;;;;;;5148696;27;20499;-60
2023/12/15 13:45:51;;;;;;;33.92;21.33;;;;;;;;;;5139422;27;20050;-59
2023/12/15 13:48:19;;;;;;;34.65;22.05;;;;;;;;;;5152627;27;20352;-60
2023/12/15 13:50:46;;;;;;;32.05;20.23;;;;;;;;;;5120430;27;20047;-60
2023/12/15 13:53:13;;;;;;;33.70;21.73;;;;;;;;;;5144947;27;20043;-60
2023/12/15 13:55:40;;;;;;;32.75;19.17;;;;;;;;;;5139425;27;20043;-60
2023/12/15 13:58:07;;;;;;;35.08;20.92;;;;;;;;;;5134397;27;20055;-60
2023/12/15 14:00:33;;;;;;;32.97;21.23;;;;;;;;;;5139901;27;20058;-59
2023/12/15 14:03:00;;;;;;;33.95;19.95;;;;;;;;;;5134258;27;20062;-59
2023/12/15 14:05:28;;;;;;;31.95;20.40;;;;;;;;;;5145230;27;20074;-60
2023/12/15 14:07:55;;;;;;;31.38;19.42;;;;;;;;;;5144753;27;20050;-59
2023/12/15 14:10:22;;;;;;;30.85;20.52;;;;;;;;;;5152451;27;20050;-59
2023/12/15 14:12:50;;;;;;;33.55;21.17;;;;;;;;;;5153039;27;20054;-59
2023/12/15 14:15:17;;;;;;;35.38;20.58;;;;;;;;;;5142090;27;20043;-60
2023/12/15 14:17:44;;;;;;;29.42;19.27;;;;;;;;;;5154748;27;20055;-59